Time;durP1;ratioP1;P1;durP2;ratioP2;P2;SDS_P1;SDS_P2;PMS_P1;PMS_P2;Temp;Humidity;BMP_temperature;BMP_pressure;BME280_temperature;BME280_humidity;BME280_pressure;Samples;Min_cycle;Max_cycle;Signal;HPM_P1;HPM_P2
2021/12/08 00:00:39;;;;;;;3.10;2.27;;;;;;;-0.72;83.79;93901.66;5045012;28;20237;-63
2021/12/08 00:03:07;;;;;;;2.60;2.40;;;;;;;-0.63;83.15;93906.16;5036207;28;20229;-63
2021/12/08 00:05:34;;;;;;;2.90;2.70;;;;;;;-0.71;83.52;93906.69;5042851;28;20298;-63
2021/12/08 00:08:00;;;;;;;3.10;2.80;;;;;;;-0.76;83.91;93910.56;5043663;28;20209;-63
2021/12/08 00:13:07;;;;;;;2.93;2.60;;;;;;;-0.88;84.00;93909.69;5038122;28;20229;-63
2021/12/08 00:16:00;;;;;;;2.80;2.60;;;;;;;-0.80;84.21;93917.69;5038666;28;20226;-64
2021/12/08 00:18:29;;;;;;;2.67;2.47;;;;;;;-0.76;83.94;93919.09;5039580;28;20276;-60
2021/12/08 00:20:58;;;;;;;3.03;2.77;;;;;;;-0.75;83.63;93922.50;5042809;28;20222;-61
2021/12/08 00:23:26;;;;;;;3.30;2.97;;;;;;;-0.80;83.55;93922.88;5036525;28;20312;-61
2021/12/08 00:25:52;;;;;;;3.30;3.00;;;;;;;-0.74;83.16;93934.50;5042656;28;20210;-61
2021/12/08 00:28:18;;;;;;;2.70;2.50;;;;;;;-0.75;83.47;93935.41;5036092;28;20217;-61
2021/12/08 00:30:47;;;;;;;2.70;2.50;;;;;;;-0.72;82.29;93932.63;5042175;28;20241;-61
2021/12/08 00:33:13;;;;;;;3.13;2.40;;;;;;;-0.69;82.75;93933.22;5036523;28;20230;-63
2021/12/08 00:35:40;;;;;;;3.00;2.70;;;;;;;-0.74;82.25;93943.06;5032677;28;20218;-65
2021/12/08 00:38:07;;;;;;;3.00;2.80;;;;;;;-0.74;82.86;93950.00;5041980;28;20233;-61
2021/12/08 00:40:35;;;;;;;2.70;2.50;;;;;;;-0.83;82.73;93937.72;5039863;28;20272;-63
2021/12/08 00:43:01;;;;;;;3.17;2.80;;;;;;;-0.78;82.72;93945.97;5038236;28;20237;-61
2021/12/08 00:45:29;;;;;;;3.40;3.10;;;;;;;-0.77;82.98;93943.28;5040791;28;20233;-62
2021/12/08 00:47:56;;;;;;;3.30;3.00;;;;;;;-0.80;81.92;93934.91;5044246;28;20244;-62
2021/12/08 00:50:24;;;;;;;2.90;2.70;;;;;;;-0.78;81.90;93949.38;5040189;28;20205;-62
2021/12/08 00:52:51;;;;;;;3.00;2.70;;;;;;;-0.78;81.75;93949.38;5035378;28;20236;-61
2021/12/08 00:55:18;;;;;;;3.50;3.20;;;;;;;-0.78;81.92;93951.13;5041334;28;20301;-61
2021/12/08 00:57:44;;;;;;;3.17;2.87;;;;;;;-0.85;81.96;93949.94;5042729;28;20261;-61
2021/12/08 01:00:20;;;;;;;3.23;2.93;;;;;;;-0.68;81.68;93957.28;5043157;28;20264;-62
2021/12/08 01:02:46;;;;;;;3.30;2.90;;;;;;;-0.77;81.74;93945.88;5044302;28;20248;-63
2021/12/08 01:05:16;;;;;;;3.50;3.20;;;;;;;-0.73;81.44;93955.03;5043827;28;20205;-64
2021/12/08 01:07:41;;;;;;;2.93;2.67;;;;;;;-0.72;81.22;93945.53;5037039;28;20222;-65
2021/12/08 01:10:10;;;;;;;3.60;3.30;;;;;;;-0.79;81.59;93952.88;5042301;28;20244;-62
2021/12/08 01:12:36;;;;;;;3.53;3.23;;;;;;;-0.73;81.91;93960.19;5036145;28;20229;-64
2021/12/08 01:15:02;;;;;;;3.23;2.97;;;;;;;-0.70;81.65;93959.16;5042502;28;20297;-61
2021/12/08 01:17:27;;;;;;;3.83;3.53;;;;;;;-0.68;80.92;93965.03;5037456;28;20279;-62
2021/12/08 01:19:53;;;;;;;3.77;3.47;;;;;;;-0.67;81.06;93953.75;5045941;28;20228;-61
2021/12/08 01:22:19;;;;;;;4.13;3.73;;;;;;;-0.75;81.52;93969.81;5041868;28;20240;-61
2021/12/08 01:24:44;;;;;;;4.00;3.63;;;;;;;-0.79;80.76;93962.41;5035383;28;20269;-63
2021/12/08 01:27:10;;;;;;;4.13;3.73;;;;;;;-0.74;81.22;93960.31;5040606;28;20222;-62
2021/12/08 01:29:36;;;;;;;4.63;4.23;;;;;;;-0.81;81.54;93959.09;5040878;28;20317;-64
2021/12/08 01:32:02;;;;;;;3.93;3.60;;;;;;;-0.69;81.52;93960.81;5044063;28;20205;-65
2021/12/08 01:34:28;;;;;;;4.83;4.13;;;;;;;-0.69;81.42;93955.66;5043393;28;20214;-64
2021/12/08 01:36:53;;;;;;;4.97;4.47;;;;;;;-0.60;80.51;93960.13;5045851;28;20248;-61
2021/12/08 01:39:19;;;;;;;4.80;4.40;;;;;;;-0.67;80.67;93966.66;5043881;28;20221;-61
2021/12/08 01:41:45;;;;;;;5.13;4.50;;;;;;;-0.65;80.55;93958.81;5046239;28;20218;-62
2021/12/08 01:46:55;;;;;;;5.43;4.93;;;;;;;-0.67;80.11;93964.94;5042085;28;20224;-64
2021/12/08 01:49:21;;;;;;;5.50;5.00;;;;;;;-0.65;80.61;93972.53;5044071;28;20264;-64
2021/12/08 01:51:46;;;;;;;5.23;4.73;;;;;;;-0.61;80.48;93971.41;5038663;28;20215;-61
2021/12/08 01:54:12;;;;;;;5.63;5.13;;;;;;;-0.64;80.45;93968.19;5047102;28;20223;-63
2021/12/08 01:56:38;;;;;;;5.70;5.10;;;;;;;-0.58;80.43;93971.19;5043148;28;20230;-63
2021/12/08 01:59:07;;;;;;;5.70;5.20;;;;;;;-0.51;80.04;93977.56;5035384;28;20221;-61
2021/12/08 02:01:36;;;;;;;6.03;5.47;;;;;;;-0.57;80.13;93977.97;5043792;28;20289;-61
2021/12/08 02:04:04;;;;;;;6.07;5.57;;;;;;;-0.57;79.92;93974.59;5046467;28;20297;-61
2021/12/08 02:06:37;;;;;;;7.37;6.70;;;;;;;-0.61;80.25;93981.72;5038368;28;20218;-64
2021/12/08 02:09:06;;;;;;;6.97;6.27;;;;;;;-0.63;80.62;93985.34;5038415;28;20222;-61
2021/12/08 02:11:32;;;;;;;6.90;6.20;;;;;;;-0.59;80.05;93982.44;5043113;28;20213;-60
2021/12/08 02:14:00;;;;;;;7.27;6.57;;;;;;;-0.60;80.24;93990.31;5045430;28;20202;-62
2021/12/08 02:16:27;;;;;;;8.00;7.20;;;;;;;-0.56;79.66;93987.41;5032690;28;20231;-61
2021/12/08 02:18:53;;;;;;;7.67;6.97;;;;;;;-0.55;79.98;93993.38;5046728;28;20233;-61
2021/12/08 02:21:32;;;;;;;7.93;7.00;;;;;;;-0.58;79.59;93997.00;5041107;28;20245;-60
2021/12/08 02:24:11;;;;;;;8.60;7.70;;;;;;;-0.57;80.29;94000.41;5035659;28;20285;-64
2021/12/08 02:26:39;;;;;;;8.47;7.67;;;;;;;-0.53;79.85;94001.84;5044581;28;20285;-64
2021/12/08 02:29:10;;;;;;;8.20;7.30;;;;;;;-0.59;80.28;94018.56;5047036;28;20212;-61
2021/12/08 02:31:53;;;;;;;9.07;8.17;;;;;;;-0.59;79.76;94010.81;5043992;28;20225;-62
2021/12/08 02:48:01;;;;;;;10.30;9.13;;;;;;;-0.59;79.39;94021.16;5045137;28;20237;-62
2021/12/08 02:50:30;;;;;;;10.97;9.70;;;;;;;-0.58;79.36;94015.06;5046484;28;20206;-61
2021/12/08 02:52:57;;;;;;;11.27;10.13;;;;;;;-0.56;79.39;94010.63;5032465;28;20237;-65
2021/12/08 02:55:23;;;;;;;11.63;10.40;;;;;;;-0.51;79.59;94012.88;5043609;28;20229;-64
2021/12/08 02:57:49;;;;;;;12.33;11.03;;;;;;;-0.49;79.49;94018.75;5045970;28;20310;-61
2021/12/08 03:00:23;;;;;;;12.23;11.00;;;;;;;-0.45;79.21;94021.00;5044335;28;20217;-64
2021/12/08 03:02:53;;;;;;;12.60;11.30;;;;;;;-0.52;79.84;94014.63;5038169;28;20256;-64
2021/12/08 03:05:19;;;;;;;13.07;11.60;;;;;;;-0.60;79.64;94005.78;5040234;28;20225;-64
2021/12/08 03:07:45;;;;;;;15.53;12.80;;;;;;;-0.65;80.08;94019.03;5042000;28;20228;-63
2021/12/08 03:10:14;;;;;;;14.57;12.73;;;;;;;-0.57;80.14;94029.63;5032623;28;20218;-65
2021/12/08 03:12:42;;;;;;;14.50;12.40;;;;;;;-0.50;80.15;94023.09;5041079;28;20239;-63
2021/12/08 03:15:09;;;;;;;14.97;12.67;;;;;;;-0.39;80.48;94031.84;5041196;28;20225;-61
2021/12/08 03:17:35;;;;;;;14.87;13.23;;;;;;;-0.39;79.87;94034.44;5036432;28;20297;-64
2021/12/08 03:20:08;;;;;;;14.57;12.40;;;;;;;-0.41;79.87;94033.69;5043391;28;20240;-63
2021/12/08 03:22:38;;;;;;;14.57;12.10;;;;;;;-0.40;79.31;94027.59;5042606;28;20218;-63
2021/12/08 03:25:06;;;;;;;15.27;12.70;;;;;;;-0.37;79.61;94041.13;5032016;28;20222;-61
2021/12/08 03:27:42;;;;;;;16.10;14.40;;;;;;;-0.41;79.71;94025.97;5046868;28;20213;-61
2021/12/08 03:30:24;;;;;;;15.07;12.90;;;;;;;-0.39;79.26;94032.66;5038565;28;20227;-63
2021/12/08 03:32:55;;;;;;;14.33;12.60;;;;;;;-0.47;79.30;94040.13;5033162;28;20230;-61
2021/12/08 03:35:22;;;;;;;15.10;13.20;;;;;;;-0.48;79.30;94036.72;5039565;28;20194;-63
2021/12/08 03:37:48;;;;;;;15.60;13.77;;;;;;;-0.47;79.57;94051.28;5039693;28;20245;-62
2021/12/08 03:40:17;;;;;;;14.87;13.27;;;;;;;-0.46;79.32;94044.34;5043511;28;20253;-61
2021/12/08 03:42:45;;;;;;;16.30;13.53;;;;;;;-0.39;79.41;94055.91;5037985;28;20286;-63
2021/12/08 03:45:14;;;;;;;15.27;12.90;;;;;;;-0.43;79.29;94053.63;5043896;28;20225;-62
2021/12/08 03:47:43;;;;;;;15.10;13.50;;;;;;;-0.36;79.23;94054.88;5041876;28;20225;-62
2021/12/08 03:50:13;;;;;;;17.67;14.30;;;;;;;-0.38;79.52;94057.53;5038472;28;20274;-62
2021/12/08 03:52:39;;;;;;;15.90;13.57;;;;;;;-0.32;79.09;94061.44;5042875;28;20233;-63
2021/12/08 03:55:07;;;;;;;18.47;14.40;;;;;;;-0.37;79.49;94063.56;5044725;28;20221;-61
2021/12/08 03:57:33;;;;;;;15.43;13.63;;;;;;;-0.37;79.18;94064.38;5034998;28;20250;-63
2021/12/08 03:59:59;;;;;;;16.27;14.00;;;;;;;-0.35;79.12;94069.41;5043595;28;20240;-65
2021/12/08 04:02:25;;;;;;;15.87;13.80;;;;;;;-0.34;79.58;94076.25;5039772;28;20205;-65
2021/12/08 04:04:51;;;;;;;17.47;14.47;;;;;;;-0.26;78.63;94089.44;5033833;28;20234;-63
2021/12/08 04:07:19;;;;;;;15.87;13.67;;;;;;;-0.31;79.14;94073.44;5036745;28;20222;-62
2021/12/08 04:09:49;;;;;;;18.13;14.33;;;;;;;-0.25;79.07;94086.72;5041951;28;20225;-62
2021/12/08 04:12:21;;;;;;;17.27;14.00;;;;;;;-0.30;78.70;94075.09;5043218;28;20301;-65
2021/12/08 04:15:07;;;;;;;16.47;13.73;;;;;;;-0.24;78.70;94085.81;5045179;28;20245;-65
2021/12/08 04:17:37;;;;;;;15.30;13.03;;;;;;;-0.21;78.53;94084.78;5036173;28;20262;-64
2021/12/08 04:20:32;;;;;;;16.30;13.50;;;;;;;-0.27;78.52;94080.03;5044240;28;20232;-63
2021/12/08 04:22:59;;;;;;;15.57;13.27;;;;;;;-0.30;78.68;94081.06;5040293;28;20248;-62
2021/12/08 04:25:34;;;;;;;16.50;13.23;;;;;;;-0.32;78.61;94084.69;5043865;28;20277;-64
2021/12/08 04:28:06;;;;;;;16.43;14.73;;;;;;;-0.31;78.26;94089.75;5043608;28;20224;-62
2021/12/08 04:30:40;;;;;;;15.87;12.77;;;;;;;-0.24;78.48;94095.34;5040353;28;20226;-62
2021/12/08 04:33:07;;;;;;;17.00;14.27;;;;;;;-0.16;78.20;94098.19;5055292;28;20225;-61
2021/12/08 04:35:33;;;;;;;16.27;13.13;;;;;;;-0.24;78.19;94085.81;5039536;28;20202;-61
2021/12/08 04:38:05;;;;;;;16.50;13.50;;;;;;;-0.17;77.93;94095.69;5034807;28;20298;-62
2021/12/08 04:40:51;;;;;;;16.53;13.37;;;;;;;-0.19;77.90;94106.13;5039697;28;20241;-62
2021/12/08 04:43:28;;;;;;;15.87;13.63;;;;;;;-0.23;78.28;94105.53;5041210;28;20209;-62
2021/12/08 04:46:07;;;;;;;17.63;14.10;;;;;;;-0.17;78.38;94106.84;5040164;28;20233;-63
2021/12/08 05:07:16;;;;;;;17.37;14.77;;;;;;;-0.13;78.38;94134.16;4998685;28;20310;-62
2021/12/08 05:09:44;;;;;;;16.23;14.50;;;;;;;-0.13;78.37;94144.47;5009055;28;20241;-61
2021/12/08 05:12:17;;;;;;;18.87;15.00;;;;;;;-0.07;77.82;94149.19;4983360;28;20227;-62
2021/12/08 05:14:54;;;;;;;18.80;15.13;;;;;;;-0.14;77.90;94135.06;4986188;28;20226;-62
2021/12/08 05:17:24;;;;;;;19.63;15.87;;;;;;;-0.22;78.01;94153.69;4998327;28;20223;-61
2021/12/08 05:19:54;;;;;;;17.47;15.57;;;;;;;-0.25;77.95;94158.25;4992963;28;20211;-62
2021/12/08 05:22:27;;;;;;;17.43;15.47;;;;;;;-0.27;77.66;94152.34;5006467;28;20294;-62
2021/12/08 05:24:56;;;;;;;19.07;15.90;;;;;;;-0.29;78.51;94164.56;4989796;28;20242;-62
2021/12/08 05:27:39;;;;;;;19.67;14.93;;;;;;;-0.29;78.21;94162.00;5008998;28;20227;-61
2021/12/08 05:30:09;;;;;;;17.50;14.67;;;;;;;-0.35;78.39;94165.81;5007150;28;20219;-61
2021/12/08 05:32:35;;;;;;;18.43;15.27;;;;;;;-0.40;78.99;94186.00;4989922;28;20253;-62
2021/12/08 05:35:01;;;;;;;19.90;16.20;;;;;;;-0.35;78.81;94164.97;4992852;28;20242;-61
2021/12/08 05:37:27;;;;;;;16.33;13.87;;;;;;;-0.39;79.21;94163.56;5011669;28;20214;-61
2021/12/08 05:39:54;;;;;;;20.80;15.40;;;;;;;-0.40;78.68;94161.91;5037685;28;20258;-60
2021/12/08 05:42:25;;;;;;;18.27;15.00;;;;;;;-0.50;78.91;94159.97;5044003;28;20269;-61
2021/12/08 05:44:52;;;;;;;19.03;15.10;;;;;;;-0.45;79.39;94164.81;5045074;28;20233;-62
2021/12/08 05:47:24;;;;;;;18.77;16.77;;;;;;;-0.31;78.60;94180.16;5033097;28;20226;-61
2021/12/08 05:49:50;;;;;;;20.80;15.43;;;;;;;-0.40;78.65;94180.81;5044585;28;20218;-62
2021/12/08 05:52:16;;;;;;;19.00;16.20;;;;;;;-0.39;78.73;94179.06;5036717;28;20229;-62
2021/12/08 05:54:45;;;;;;;19.53;16.13;;;;;;;-0.40;78.39;94175.66;5041124;28;20261;-61
2021/12/08 05:57:15;;;;;;;20.90;17.03;;;;;;;-0.38;78.87;94183.28;5042099;28;20254;-62
2021/12/08 05:59:41;;;;;;;19.40;16.53;;;;;;;-0.37;78.75;94179.78;5045330;28;20274;-62
2021/12/08 06:02:15;;;;;;;19.50;15.90;;;;;;;-0.34;78.79;94177.00;5042183;28;20214;-63
2021/12/08 06:04:41;;;;;;;18.93;15.83;;;;;;;-0.31;79.02;94184.53;5054092;28;20402;-62
2021/12/08 06:07:08;;;;;;;20.47;16.63;;;;;;;-0.27;78.84;94199.72;5039848;28;20255;-63
2021/12/08 06:09:36;;;;;;;21.53;16.30;;;;;;;-0.25;78.93;94202.16;5046548;28;20288;-63
2021/12/08 06:12:05;;;;;;;20.23;17.00;;;;;;;-0.20;78.56;94204.44;5054233;28;20234;-62
2021/12/08 06:14:32;;;;;;;21.27;15.50;;;;;;;-0.19;79.21;94208.66;5035859;28;20212;-61
2021/12/08 06:17:02;;;;;;;19.03;16.40;;;;;;;0.00;78.92;94214.22;5039815;28;20319;-64
2021/12/08 06:19:28;;;;;;;19.67;15.90;;;;;;;-0.01;78.02;94213.38;5037918;28;20236;-61
2021/12/08 06:21:56;;;;;;;19.13;15.80;;;;;;;0.01;77.75;94223.59;5043438;28;20233;-62
2021/12/08 06:24:22;;;;;;;19.60;15.97;;;;;;;-0.05;77.80;94224.88;5037082;28;20235;-61
2021/12/08 06:26:49;;;;;;;20.47;15.90;;;;;;;0.02;77.82;94234.78;5038336;28;20233;-63
2021/12/08 06:29:17;;;;;;;20.57;16.30;;;;;;;-0.08;77.83;94229.41;5040440;28;20205;-62
2021/12/08 06:31:44;;;;;;;23.50;16.80;;;;;;;-0.17;78.09;94220.53;5043755;28;20224;-61
2021/12/08 06:34:10;;;;;;;23.13;18.33;;;;;;;-0.09;78.28;94236.34;5037673;28;20245;-61
2021/12/08 06:36:46;;;;;;;24.03;18.90;;;;;;;-0.12;78.32;94230.56;5039434;28;20226;-62
2021/12/08 06:39:18;;;;;;;17.73;14.77;;;;;;;-0.11;77.60;94234.78;5034566;28;20230;-61
2021/12/08 06:41:48;;;;;;;18.57;14.60;;;;;;;-0.13;77.20;94232.34;5038422;28;20231;-62
2021/12/08 06:44:31;;;;;;;14.93;12.67;;;;;;;-0.16;76.75;94222.22;5041851;28;20235;-64
2021/12/08 06:47:00;;;;;;;18.37;15.63;;;;;;;-0.18;77.17;94241.34;5038869;28;20201;-63
2021/12/08 06:49:26;;;;;;;15.83;13.73;;;;;;;-0.16;76.74;94231.69;5036628;28;20292;-63
2021/12/08 06:51:59;;;;;;;16.20;13.03;;;;;;;-0.17;76.74;94235.22;5036231;28;20309;-64
2021/12/08 06:54:40;;;;;;;15.80;13.10;;;;;;;-0.16;76.58;94224.81;5037755;28;20226;-63
2021/12/08 06:57:17;;;;;;;14.07;12.37;;;;;;;-0.17;76.55;94230.88;5032034;28;20295;-63
2021/12/08 06:59:55;;;;;;;17.00;13.90;;;;;;;-0.20;76.61;94238.84;5038797;28;20268;-63
2021/12/08 07:02:48;;;;;;;14.77;13.13;;;;;;;-0.14;76.66;94235.00;5036792;28;20193;-66
2021/12/08 07:05:12;;;;;;;15.53;13.00;;;;;;;-0.20;76.21;94231.09;5028816;28;20213;-63
2021/12/08 07:07:41;;;;;;;18.03;13.67;;;;;;;-0.05;76.35;94227.44;5039725;28;20365;-63
2021/12/08 07:10:43;;;;;;;16.43;13.63;;;;;;;-0.01;76.62;94240.97;5036593;28;20229;-64
2021/12/08 07:13:14;;;;;;;17.63;13.97;;;;;;;0.00;75.91;94245.22;4966691;28;20223;-64
2021/12/08 07:15:47;;;;;;;16.40;12.77;;;;;;;-0.14;76.28;94238.41;4980143;28;20235;-63
2021/12/08 07:18:18;;;;;;;15.40;13.00;;;;;;;-0.13;76.04;94242.66;4968356;28;20293;-61
2021/12/08 07:20:48;;;;;;;16.53;13.50;;;;;;;-0.09;75.94;94232.94;4963931;28;20228;-63
2021/12/08 07:23:36;;;;;;;14.83;12.23;;;;;;;-0.01;75.35;94257.31;4980165;28;20220;-62
2021/12/08 07:26:08;;;;;;;15.70;12.40;;;;;;;-0.16;75.36;94249.78;4967453;28;20212;-63
2021/12/08 07:28:34;;;;;;;14.07;12.13;;;;;;;-0.05;75.75;94260.22;4967339;28;20236;-62
2021/12/08 07:31:20;;;;;;;16.37;12.63;;;;;;;-0.05;75.20;94263.63;4962477;28;20240;-62
2021/12/08 07:33:47;;;;;;;14.80;12.50;;;;;;;-0.15;74.70;94261.78;4964230;28;20337;-64
2021/12/08 07:36:16;;;;;;;15.30;12.50;;;;;;;-0.18;75.26;94285.25;4982510;28;20243;-62
2021/12/08 07:38:44;;;;;;;15.07;12.40;;;;;;;-0.24;75.89;94281.34;4965430;28;20232;-63
2021/12/08 07:41:25;;;;;;;13.57;12.17;;;;;;;-0.26;75.57;94294.34;4981320;28;20235;-63
2021/12/08 07:43:54;;;;;;;14.20;12.73;;;;;;;-0.36;75.77;94284.75;4965623;28;20262;-62
2021/12/08 07:46:26;;;;;;;14.30;12.30;;;;;;;-0.25;75.47;94282.25;4968725;28;20223;-62
2021/12/08 07:49:00;;;;;;;14.10;12.73;;;;;;;-0.34;75.82;94290.66;4999528;28;20255;-62
2021/12/08 07:51:47;;;;;;;15.23;11.73;;;;;;;-0.17;76.18;94290.31;5035703;28;20230;-63
2021/12/08 07:54:14;;;;;;;16.20;12.23;;;;;;;-0.11;76.10;94296.81;5041064;28;20268;-65
2021/12/08 07:56:43;;;;;;;16.07;12.77;;;;;;;-0.08;75.91;94297.44;5040401;28;20301;-63
2021/12/08 07:59:12;;;;;;;16.17;13.17;;;;;;;-0.06;75.76;94299.91;5032295;28;20198;-62
2021/12/08 08:01:42;;;;;;;14.37;12.10;;;;;;;0.05;75.02;94296.59;5040289;28;20230;-63
2021/12/08 08:04:12;;;;;;;17.17;13.03;;;;;;;0.05;75.43;94301.75;5041662;28;20293;-62
2021/12/08 08:06:43;;;;;;;14.17;12.13;;;;;;;-0.02;75.13;94306.53;5031693;28;20289;-61
2021/12/08 08:09:17;;;;;;;14.50;11.67;;;;;;;-0.11;74.50;94313.13;5036981;28;20229;-64
2021/12/08 08:11:48;;;;;;;16.10;12.10;;;;;;;-0.17;74.67;94313.56;5038046;28;20213;-62
2021/12/08 08:14:19;;;;;;;15.00;11.90;;;;;;;-0.07;75.01;94312.00;5036091;28;20206;-62
2021/12/08 08:16:50;;;;;;;13.80;12.10;;;;;;;0.04;74.75;94319.03;5036357;28;20210;-64
2021/12/08 08:19:19;;;;;;;14.47;12.17;;;;;;;0.04;75.07;94316.44;5033985;28;20210;-64
2021/12/08 08:21:48;;;;;;;14.93;12.93;;;;;;;0.07;74.52;94320.56;5030472;28;20217;-64
2021/12/08 08:24:15;;;;;;;14.80;13.07;;;;;;;0.11;74.16;94324.63;5044492;28;20225;-63
2021/12/08 08:26:43;;;;;;;13.50;11.83;;;;;;;0.08;74.11;94306.72;5042230;28;20294;-63
2021/12/08 08:29:10;;;;;;;15.33;12.13;;;;;;;0.08;73.73;94317.91;5037887;28;20228;-63
2021/12/08 08:31:42;;;;;;;14.73;13.13;;;;;;;0.10;73.93;94331.53;5041300;28;20222;-63
2021/12/08 08:34:09;;;;;;;15.97;13.30;;;;;;;0.02;74.25;94318.28;5039924;28;20226;-64
2021/12/08 08:36:41;;;;;;;15.50;12.47;;;;;;;0.09;74.49;94319.53;5042060;28;20281;-64
2021/12/08 08:39:18;;;;;;;16.20;13.13;;;;;;;0.14;74.40;94309.72;5042497;28;20293;-65
2021/12/08 08:41:49;;;;;;;14.67;12.47;;;;;;;0.22;73.91;94316.94;5041707;28;20228;-63
2021/12/08 08:44:42;;;;;;;15.00;12.50;;;;;;;0.28;74.44;94301.00;5040556;28;20198;-64
2021/12/08 08:47:12;;;;;;;18.10;14.73;;;;;;;0.40;73.36;94307.91;5040678;28;20453;-63
2021/12/08 08:49:39;;;;;;;15.90;13.70;;;;;;;0.53;73.58;94307.84;5038493;28;20268;-63
2021/12/08 08:52:18;;;;;;;17.30;13.83;;;;;;;0.69;72.75;94301.56;5033586;28;20249;-63
2021/12/08 08:54:47;;;;;;;20.47;14.53;;;;;;;0.68;72.99;94295.59;5040403;28;20225;-63
2021/12/08 08:57:17;;;;;;;18.03;13.57;;;;;;;0.70;72.78;94301.47;5041420;28;20234;-62
2021/12/08 08:59:47;;;;;;;17.53;14.23;;;;;;;0.74;72.54;94295.13;5041603;28;20226;-61
2021/12/08 09:02:20;;;;;;;17.93;14.83;;;;;;;0.77;72.49;94289.72;5043153;28;20198;-68
2021/12/08 09:04:54;;;;;;;18.93;15.40;;;;;;;0.79;73.33;94292.22;5030946;28;20223;-64
2021/12/08 09:07:23;;;;;;;19.03;16.47;;;;;;;0.76;72.98;94298.44;5043527;28;20225;-64
2021/12/08 09:09:51;;;;;;;19.53;16.27;;;;;;;0.75;73.14;94296.81;5040778;28;20213;-66
2021/12/08 09:12:40;;;;;;;17.93;15.90;;;;;;;0.92;73.13;94292.97;5035835;28;20237;-63
2021/12/08 09:15:34;;;;;;;21.13;17.10;;;;;;;0.99;72.00;94283.84;5040861;28;20230;-64
2021/12/08 09:18:09;;;;;;;18.73;15.37;;;;;;;1.02;72.35;94282.78;5037289;28;20333;-63
2021/12/08 09:20:44;;;;;;;20.70;15.07;;;;;;;1.10;71.42;94281.28;5036325;28;20275;-63
2021/12/08 09:23:38;;;;;;;18.83;15.73;;;;;;;1.18;70.86;94259.19;5036223;28;20209;-64
2021/12/08 09:26:10;;;;;;;17.83;15.43;;;;;;;1.42;71.29;94267.72;5031535;28;20253;-65
2021/12/08 09:28:50;;;;;;;16.50;14.33;;;;;;;1.55;70.14;94254.66;5038384;28;20211;-63
2021/12/08 09:31:24;;;;;;;19.37;14.97;;;;;;;1.59;70.01;94250.91;5034305;28;20222;-63
2021/12/08 09:33:53;;;;;;;18.83;15.33;;;;;;;1.52;70.33;94260.06;5036862;28;20222;-63
2021/12/08 09:36:25;;;;;;;17.23;15.33;;;;;;;1.58;70.68;94246.66;5034734;28;20248;-62
2021/12/08 09:38:59;;;;;;;18.40;15.30;;;;;;;1.66;70.59;94252.09;5038276;28;20263;-64
2021/12/08 09:41:37;;;;;;;16.90;15.00;;;;;;;1.82;69.93;94259.53;5040198;28;20200;-64
2021/12/08 09:44:11;;;;;;;19.07;14.80;;;;;;;1.87;69.37;94251.38;5035627;28;20217;-64
2021/12/08 09:46:41;;;;;;;18.63;15.20;;;;;;;1.90;69.79;94253.75;5044136;28;20276;-63
2021/12/08 09:49:10;;;;;;;18.23;15.07;;;;;;;1.92;68.81;94249.25;5040424;28;20222;-64
2021/12/08 09:51:36;;;;;;;18.77;15.10;;;;;;;1.86;69.68;94247.13;5044511;28;20240;-67
2021/12/08 09:54:02;;;;;;;18.17;15.10;;;;;;;1.81;69.49;94238.88;5043096;28;20230;-64
2021/12/08 09:56:27;;;;;;;15.33;13.50;;;;;;;1.78;69.08;94250.31;5042653;28;20206;-64
2021/12/08 09:58:54;;;;;;;17.77;14.70;;;;;;;1.93;69.37;94251.75;5037446;28;20195;-65
2021/12/08 10:01:22;;;;;;;18.43;14.43;;;;;;;2.01;69.13;94245.16;5041976;28;20277;-64
2021/12/08 10:03:49;;;;;;;20.03;16.20;;;;;;;2.22;68.28;94243.47;5040706;28;20237;-63
2021/12/08 10:06:16;;;;;;;16.73;14.17;;;;;;;2.25;68.67;94250.19;5040434;28;20237;-65
2021/12/08 10:08:43;;;;;;;17.53;13.87;;;;;;;2.20;68.44;94248.75;5037016;28;20230;-63
2021/12/08 10:11:10;;;;;;;17.77;14.27;;;;;;;2.23;68.93;94254.66;5039636;28;20202;-64
2021/12/08 10:13:35;;;;;;;17.40;14.57;;;;;;;2.26;67.79;94259.59;5043471;28;20241;-64
2021/12/08 10:16:01;;;;;;;16.37;14.00;;;;;;;2.25;68.23;94256.19;5044903;28;20222;-64
2021/12/08 10:18:27;;;;;;;18.13;14.33;;;;;;;2.26;68.51;94257.84;5044316;28;20240;-64
2021/12/08 10:20:55;;;;;;;18.00;14.20;;;;;;;2.30;69.38;94261.84;5043282;28;20226;-61
2021/12/08 10:23:28;;;;;;;17.03;14.67;;;;;;;2.41;68.46;94254.03;5044862;28;20202;-62
2021/12/08 10:25:57;;;;;;;16.30;14.47;;;;;;;2.47;68.43;94255.31;5044775;28;20378;-64
2021/12/08 10:28:31;;;;;;;18.10;15.23;;;;;;;2.55;67.68;94242.56;5041731;28;20350;-62
2021/12/08 10:31:27;;;;;;;15.57;13.53;;;;;;;2.86;66.44;94240.09;5038264;28;20311;-63
2021/12/08 10:39:07;;;;;;;13.53;12.13;;;;;;;3.16;64.45;94241.16;5045332;28;20229;-64
2021/12/08 10:41:57;;;;;;;14.63;13.03;;;;;;;2.93;66.59;94248.22;5045559;28;20251;-63
2021/12/08 10:44:51;;;;;;;17.83;13.80;;;;;;;3.07;65.68;94240.13;5038707;28;20234;-61
2021/12/08 10:47:27;;;;;;;17.33;14.67;;;;;;;3.02;65.56;94239.66;5036100;28;20202;-62
2021/12/08 10:55:19;;;;;;;15.57;13.43;;;;;;;4.29;60.84;94235.97;5037863;28;20221;-64
2021/12/08 10:57:47;;;;;;;14.07;11.87;;;;;;;4.16;60.70;94224.00;5041350;28;20284;-62
2021/12/08 11:00:19;;;;;;;15.77;13.87;;;;;;;4.60;61.22;94232.34;5039321;28;20234;-62
2021/12/08 11:02:58;;;;;;;14.37;12.27;;;;;;;4.49;60.27;94226.41;5035767;28;20248;-62
2021/12/08 11:05:29;;;;;;;15.40;13.17;;;;;;;4.61;60.51;94231.38;5034238;28;20265;-62
2021/12/08 11:08:01;;;;;;;14.33;12.80;;;;;;;4.94;59.65;94218.91;5042443;28;20373;-63
2021/12/08 11:10:26;;;;;;;13.87;12.47;;;;;;;4.84;58.95;94221.53;5044463;28;20229;-63
2021/12/08 11:12:55;;;;;;;14.27;12.77;;;;;;;5.04;58.54;94224.13;5046203;28;20223;-61
2021/12/08 11:15:22;;;;;;;14.27;11.93;;;;;;;4.89;58.53;94235.91;5032358;28;20226;-62
2021/12/08 11:17:49;;;;;;;16.57;14.00;;;;;;;4.42;60.00;94234.75;5038098;28;20293;-62
2021/12/08 11:20:21;;;;;;;14.23;12.73;;;;;;;4.75;59.93;94243.16;5036232;28;20205;-62
2021/12/08 11:23:03;;;;;;;14.77;13.27;;;;;;;5.03;58.69;94230.31;5038996;28;20205;-62
2021/12/08 11:25:37;;;;;;;14.50;13.00;;;;;;;4.95;58.34;94232.78;5034449;28;20277;-62
2021/12/08 11:28:18;;;;;;;13.47;10.47;;;;;;;4.94;57.74;94233.72;5032200;28;20218;-63
2021/12/08 11:30:43;;;;;;;15.50;11.60;;;;;;;4.71;59.08;94236.59;5047628;28;20217;-63
2021/12/08 11:33:23;;;;;;;14.27;12.33;;;;;;;4.95;58.90;94233.59;5043527;28;20268;-64
2021/12/08 11:36:09;;;;;;;15.27;11.93;;;;;;;4.50;59.18;94235.88;5037033;28;20294;-64
2021/12/08 11:38:34;;;;;;;13.80;11.80;;;;;;;4.74;59.21;94231.09;5039408;28;20236;-64
2021/12/08 11:41:00;;;;;;;12.60;11.27;;;;;;;4.92;58.30;94233.03;5040253;28;20202;-65
2021/12/08 11:43:30;;;;;;;14.20;12.47;;;;;;;5.15;57.58;94242.22;5041212;28;20205;-64
2021/12/08 11:46:17;;;;;;;14.47;12.27;;;;;;;5.24;57.53;94238.00;5029144;28;20240;-64
2021/12/08 11:49:10;;;;;;;15.27;13.47;;;;;;;5.64;57.80;94244.75;5039880;28;20234;-62
2021/12/08 11:51:44;;;;;;;14.57;13.07;;;;;;;5.70;57.00;94252.88;5039031;28;20224;-64
2021/12/08 11:54:31;;;;;;;13.10;11.80;;;;;;;5.62;56.40;94244.91;5038560;28;20335;-63
2021/12/08 11:57:11;;;;;;;13.03;11.50;;;;;;;5.55;57.04;94253.44;5032686;28;20241;-64
2021/12/08 12:00:10;;;;;;;14.20;12.13;;;;;;;5.53;55.78;94254.41;5032201;28;20226;-63
2021/12/08 12:02:43;;;;;;;15.30;12.93;;;;;;;5.11;56.92;94248.69;5000371;28;20231;-63
2021/12/08 12:05:12;;;;;;;15.37;13.50;;;;;;;4.78;58.53;94250.69;4979133;28;20218;-63
2021/12/08 12:07:39;;;;;;;14.30;12.80;;;;;;;4.81;57.87;94250.47;4984693;28;20306;-64
2021/12/08 12:10:08;;;;;;;14.63;12.90;;;;;;;4.99;57.83;94268.00;4981379;28;20246;-64
2021/12/08 12:12:37;;;;;;;13.70;12.17;;;;;;;4.84;58.04;94265.00;4996285;28;20283;-64
2021/12/08 12:15:04;;;;;;;14.73;12.70;;;;;;;4.28;59.76;94266.38;4995263;28;20273;-65
2021/12/08 12:17:30;;;;;;;14.90;13.33;;;;;;;4.13;59.96;94259.88;4983988;28;20221;-65
2021/12/08 12:20:12;;;;;;;15.83;12.63;;;;;;;4.33;60.77;94273.75;4998616;28;20231;-64
2021/12/08 12:22:54;;;;;;;14.90;13.30;;;;;;;3.96;60.78;94269.94;5002061;28;20223;-65
2021/12/08 12:25:42;;;;;;;15.53;13.93;;;;;;;4.30;59.75;94271.44;5003096;28;20214;-66
2021/12/08 12:28:33;;;;;;;14.83;12.93;;;;;;;4.22;60.32;94281.66;4981280;28;20255;-65
2021/12/08 12:31:42;;;;;;;14.03;12.50;;;;;;;4.89;59.14;94277.59;4983457;28;20244;-64